createdAt,value
2024-05-09T00:01:04.622Z,18.20
2024-05-09T00:04:29.697Z,18.37
2024-05-09T00:07:54.713Z,17.50
2024-05-09T00:11:20.894Z,17.43
2024-05-09T00:14:46.036Z,17.30
2024-05-09T00:21:53.880Z,17.77
2024-05-09T00:25:19.214Z,17.50
2024-05-09T00:28:44.223Z,16.13
2024-05-09T00:32:09.321Z,16.90
2024-05-09T00:35:34.445Z,17.70
2024-05-09T00:38:59.480Z,17.50
2024-05-09T00:42:24.444Z,17.13
2024-05-09T00:45:49.699Z,17.03
2024-05-09T00:49:15.073Z,16.87
2024-05-09T00:52:40.536Z,16.25
2024-05-09T00:56:06.861Z,18.27
2024-05-09T01:02:57.874Z,17.27
2024-05-09T01:06:23.279Z,13.88
2024-05-09T01:09:48.229Z,17.60
2024-05-09T01:13:13.390Z,17.93
2024-05-09T01:16:38.492Z,16.50
2024-05-09T01:20:10.894Z,16.57
2024-05-09T01:23:42.879Z,18.03
2024-05-09T01:27:08.325Z,17.33
2024-05-09T01:30:35.958Z,17.35
2024-05-09T01:34:03.229Z,17.23
2024-05-09T01:37:28.243Z,17.52
2024-05-09T01:40:53.534Z,16.70
2024-05-09T01:44:18.572Z,17.60
2024-05-09T01:47:43.743Z,18.80
2024-05-09T01:51:09.038Z,18.20
2024-05-09T01:54:34.513Z,18.37
2024-05-09T01:57:59.517Z,17.77
2024-05-09T02:01:24.728Z,18.23
2024-05-09T02:04:50.024Z,19.13
2024-05-09T02:08:19.349Z,19.30
2024-05-09T02:11:47.474Z,19.03
2024-05-09T02:15:13.045Z,18.77
2024-05-09T02:18:38.354Z,13.53
2024-05-09T02:22:03.606Z,18.63
2024-05-09T02:25:30.127Z,17.07
2024-05-09T02:28:55.190Z,17.33
2024-05-09T02:32:20.527Z,20.07
2024-05-09T02:35:45.695Z,14.73
2024-05-09T02:39:11.134Z,18.70
2024-05-09T02:42:36.109Z,18.93
2024-05-09T02:46:01.366Z,19.33
2024-05-09T02:49:22.198Z,17.40
2024-05-09T02:52:47.253Z,18.67
2024-05-09T02:56:12.649Z,19.63
2024-05-09T02:59:37.673Z,21.17
2024-05-09T03:03:03.142Z,20.60
2024-05-09T03:06:28.327Z,20.02
2024-05-09T03:09:53.260Z,19.57
2024-05-09T03:13:18.521Z,20.33
2024-05-09T03:16:43.708Z,20.47
2024-05-09T03:20:14.654Z,22.40
2024-05-09T03:23:45.541Z,21.67
2024-05-09T03:27:15.149Z,20.97
2024-05-09T03:30:42.630Z,23.47
2024-05-09T03:34:12.191Z,21.77
2024-05-09T03:37:40.417Z,21.10
2024-05-09T03:41:05.789Z,18.57
2024-05-09T03:44:30.820Z,20.90
2024-05-09T03:47:56.290Z,18.73
2024-05-09T03:51:21.457Z,16.85
2024-05-09T03:54:49.536Z,23.80
2024-05-09T03:58:14.571Z,23.93
2024-05-09T04:01:40.010Z,23.27
2024-05-09T04:05:05.157Z,17.33
2024-05-09T04:08:30.420Z,21.83
2024-05-09T04:11:55.931Z,23.63
2024-05-09T04:15:21.218Z,22.90
2024-05-09T04:18:46.253Z,24.40
2024-05-09T04:22:11.734Z,24.00
2024-05-09T04:25:36.792Z,24.20
2024-05-09T04:28:03.880Z,25.47
2024-05-09T04:31:29.396Z,25.13
2024-05-09T04:34:54.121Z,25.77
2024-05-09T04:38:19.151Z,27.17
2024-05-09T04:41:44.344Z,27.93
2024-05-09T04:45:09.310Z,28.53
2024-05-09T04:48:34.707Z,28.77
2024-05-09T04:52:00.121Z,31.53
2024-05-09T04:55:25.102Z,31.60
2024-05-09T04:58:50.080Z,30.83
2024-05-09T05:02:15.417Z,29.97
2024-05-09T05:05:41.291Z,30.73
2024-05-09T05:09:10.283Z,31.35
2024-05-09T05:12:53.692Z,32.30
2024-05-09T05:16:18.679Z,31.37
2024-05-09T05:19:43.962Z,29.30
2024-05-09T05:23:13.129Z,32.00
2024-05-09T05:26:40.098Z,33.17
2024-05-09T05:30:07.503Z,32.33
2024-05-09T05:33:34.831Z,35.10
2024-05-09T05:36:59.949Z,36.47
2024-05-09T05:40:32.725Z,37.90
2024-05-09T05:44:02.261Z,36.28
2024-05-09T05:47:27.683Z,36.63
2024-05-09T05:50:52.771Z,37.07
2024-05-09T05:54:18.018Z,38.57
2024-05-09T05:57:43.350Z,36.80
2024-05-09T06:01:08.670Z,34.20
2024-05-09T06:04:33.615Z,34.83
2024-05-09T06:07:58.920Z,33.47
2024-05-09T06:11:23.983Z,36.73
2024-05-09T06:14:49.246Z,36.60
2024-05-09T06:18:14.768Z,36.33
2024-05-09T06:21:40.274Z,36.95
2024-05-09T06:25:05.522Z,33.67
2024-05-09T06:28:30.679Z,36.60
2024-05-09T06:31:57.136Z,36.37
2024-05-09T06:35:24.944Z,33.90
2024-05-09T06:38:50.183Z,34.60
2024-05-09T06:42:15.390Z,34.23
2024-05-09T06:45:40.531Z,34.03
2024-05-09T06:49:08.596Z,33.97
2024-05-09T06:52:36.763Z,33.73
2024-05-09T06:56:02.040Z,33.87
2024-05-09T06:59:27.330Z,33.10
2024-05-09T07:02:52.720Z,33.43
2024-05-09T07:06:17.857Z,31.73
2024-05-09T07:09:43.133Z,30.45
2024-05-09T07:13:11.873Z,30.13
2024-05-09T07:16:37.312Z,29.67
2024-05-09T07:20:02.350Z,29.63
2024-05-09T07:23:27.796Z,29.70
2024-05-09T07:26:53.002Z,30.77
2024-05-09T07:30:23.760Z,28.73
2024-05-09T07:33:56.685Z,27.98
2024-05-09T07:37:21.687Z,27.25
2024-05-09T07:40:46.985Z,28.63
2024-05-09T07:44:12.279Z,27.37
2024-05-09T07:48:58.100Z,28.58
2024-05-09T07:54:52.170Z,26.77
2024-05-09T07:58:17.282Z,26.80
2024-05-09T08:01:42.560Z,28.33
2024-05-09T08:05:07.787Z,26.92
2024-05-09T08:08:33.153Z,27.70
2024-05-09T08:11:59.062Z,27.03
2024-05-09T08:15:24.303Z,26.17
2024-05-09T08:18:49.567Z,26.15
2024-05-09T08:22:14.802Z,26.83
2024-05-09T08:25:43.037Z,25.45
2024-05-09T08:29:09.657Z,25.08
2024-05-09T08:32:39.641Z,23.25
2024-05-09T08:36:04.970Z,23.40
2024-05-09T08:39:30.226Z,21.27
2024-05-09T08:42:56.132Z,22.95
2024-05-09T08:46:21.791Z,20.20
2024-05-09T08:49:48.203Z,21.48
2024-05-09T08:56:42.238Z,21.85
2024-05-09T09:00:12.695Z,20.83
2024-05-09T09:03:41.132Z,18.88
2024-05-09T09:07:09.236Z,16.38
2024-05-09T09:10:35.534Z,16.67
2024-05-09T09:14:01.018Z,20.60
2024-05-09T09:17:36.276Z,18.60
2024-05-09T09:21:02.790Z,16.50
2024-05-09T09:24:28.140Z,15.80
2024-05-09T09:27:55.534Z,17.13
2024-05-09T09:31:20.826Z,16.83
2024-05-09T09:34:47.400Z,16.37
2024-05-09T09:38:13.235Z,15.38
2024-05-09T09:41:40.441Z,15.60
2024-05-09T09:45:07.499Z,11.20
2024-05-09T09:48:33.452Z,13.45
2024-05-09T09:52:02.446Z,13.02
2024-05-09T09:55:28.526Z,14.40
2024-05-09T09:58:54.327Z,14.60
2024-05-09T10:02:20.008Z,11.18
2024-05-09T10:05:47.284Z,9.10
2024-05-09T10:09:18.010Z,9.75
2024-05-09T10:12:51.938Z,10.43
2024-05-09T10:16:20.406Z,8.75
2024-05-09T10:19:46.093Z,8.68
2024-05-09T10:23:24.000Z,8.10
2024-05-09T10:27:03.773Z,6.65
2024-05-09T10:30:34.239Z,7.13
2024-05-09T10:34:02.881Z,8.02
2024-05-09T10:37:31.096Z,9.60
2024-05-09T10:41:00.094Z,9.50
2024-05-09T10:44:25.228Z,9.02
2024-05-09T10:47:51.195Z,11.07
2024-05-09T10:51:16.668Z,10.55
2024-05-09T10:54:42.552Z,10.77
2024-05-09T10:58:16.691Z,10.07
2024-05-09T11:01:41.916Z,10.73
2024-05-09T11:05:07.075Z,10.38
2024-05-09T11:08:32.635Z,9.77
2024-05-09T11:11:58.498Z,10.50
2024-05-09T11:15:24.304Z,10.02
2024-05-09T11:18:56.311Z,9.00
2024-05-09T11:22:24.884Z,8.65
2024-05-09T11:25:53.620Z,8.77
2024-05-09T11:29:19.646Z,7.47
2024-05-09T11:32:45.295Z,8.23
2024-05-09T11:36:10.350Z,8.90
2024-05-09T11:39:35.719Z,7.60
2024-05-09T11:43:00.872Z,8.52
2024-05-09T11:46:26.134Z,7.18
2024-05-09T11:49:51.222Z,7.68
2024-05-09T11:53:16.377Z,7.75
2024-05-09T11:56:41.372Z,7.00
2024-05-09T12:00:09.398Z,5.90
2024-05-09T12:03:35.017Z,5.88
2024-05-09T12:07:00.390Z,7.32
2024-05-09T12:10:32.678Z,7.82
2024-05-09T12:14:00.514Z,7.32
2024-05-09T12:17:25.816Z,8.32
2024-05-09T12:20:51.065Z,7.47
2024-05-09T12:24:18.247Z,8.35
2024-05-09T12:27:43.549Z,6.95
2024-05-09T12:31:08.907Z,6.55
2024-05-09T12:34:34.109Z,7.18
2024-05-09T12:37:59.428Z,8.00
2024-05-09T12:41:25.398Z,8.02
2024-05-09T12:48:15.507Z,7.18
2024-05-09T12:51:40.606Z,6.03
2024-05-09T12:55:06.067Z,8.27
2024-05-09T12:58:31.235Z,9.90
2024-05-09T13:01:58.783Z,8.63
2024-05-09T13:05:25.994Z,7.60
2024-05-09T13:08:51.401Z,7.07
2024-05-09T13:12:16.581Z,7.63
2024-05-09T13:15:41.736Z,6.72
2024-05-09T13:19:07.434Z,6.10
2024-05-09T13:22:32.387Z,6.53
2024-05-09T13:25:57.468Z,6.40
2024-05-09T13:29:22.504Z,6.32
2024-05-09T13:32:47.661Z,6.63
2024-05-09T13:36:12.809Z,7.30
2024-05-09T13:39:38.120Z,7.22
2024-05-09T13:43:04.064Z,6.97
2024-05-09T13:46:29.793Z,6.80
2024-05-09T13:49:54.956Z,6.60
2024-05-09T13:53:20.187Z,4.63
2024-05-09T13:56:45.447Z,6.22
2024-05-09T14:00:22.895Z,8.10
2024-05-09T14:03:56.015Z,7.80
2024-05-09T14:07:21.894Z,7.80
2024-05-09T14:10:47.573Z,7.97
2024-05-09T14:14:13.503Z,7.45
2024-05-09T14:17:38.619Z,7.78
2024-05-09T14:21:06.434Z,7.50
2024-05-09T14:24:32.089Z,8.25
2024-05-09T14:27:57.669Z,8.48
2024-05-09T14:31:23.036Z,7.82
2024-05-09T14:34:48.409Z,8.50
2024-05-09T14:38:13.823Z,7.68
2024-05-09T14:41:40.359Z,7.05
2024-05-09T14:45:06.175Z,7.68
2024-05-09T14:48:31.294Z,7.25
2024-05-09T14:51:56.619Z,5.68
2024-05-09T14:55:21.616Z,6.43
2024-05-09T14:58:46.948Z,7.13
2024-05-09T15:02:12.206Z,8.75
2024-05-09T15:05:37.589Z,7.40
2024-05-09T15:09:07.537Z,7.15
2024-05-09T15:12:33.364Z,5.30
2024-05-09T15:15:58.371Z,6.10
2024-05-09T15:19:23.761Z,6.15
2024-05-09T15:22:48.875Z,6.60
2024-05-09T15:26:13.924Z,7.97
2024-05-09T15:29:39.407Z,7.78
2024-05-09T15:33:06.961Z,8.80
2024-05-09T15:36:32.830Z,7.60
2024-05-09T15:39:58.702Z,8.07
2024-05-09T15:43:25.020Z,8.73
2024-05-09T15:46:50.358Z,9.52
2024-05-09T15:50:20.610Z,8.63
2024-05-09T15:53:53.556Z,9.95
2024-05-09T15:57:18.558Z,8.07
2024-05-09T16:00:45.049Z,7.70
2024-05-09T16:04:12.024Z,7.72
2024-05-09T16:07:37.075Z,9.40
2024-05-09T16:11:03.298Z,9.35
2024-05-09T16:14:28.562Z,8.70
2024-05-09T16:17:54.288Z,7.65
2024-05-09T16:21:19.996Z,9.32
2024-05-09T16:24:45.262Z,7.55
2024-05-09T16:28:11.244Z,8.98
2024-05-09T16:35:01.507Z,10.10
2024-05-09T16:38:26.810Z,8.82
2024-05-09T16:41:51.818Z,8.90
2024-05-09T16:45:17.004Z,7.85
2024-05-09T16:48:45.806Z,9.50
2024-05-09T16:52:11.280Z,6.95
2024-05-09T16:55:36.666Z,9.88
2024-05-09T16:59:02.124Z,8.50
2024-05-09T17:02:27.328Z,9.77
2024-05-09T17:05:52.724Z,9.75
2024-05-09T17:09:19.887Z,10.35
2024-05-09T17:12:45.696Z,9.82
2024-05-09T17:16:11.446Z,9.95
2024-05-09T17:19:40.554Z,8.27
2024-05-09T17:23:13.415Z,8.02
2024-05-09T17:26:39.354Z,8.30
2024-05-09T17:30:06.169Z,7.83
2024-05-09T17:33:34.206Z,9.32
2024-05-09T17:37:00.308Z,7.60
2024-05-09T17:40:32.707Z,7.28
2024-05-09T17:44:00.695Z,7.18
2024-05-09T17:47:25.947Z,6.50
2024-05-09T17:50:51.981Z,6.47
2024-05-09T17:54:26.242Z,7.63
2024-05-09T17:57:57.819Z,6.20
2024-05-09T18:01:25.693Z,6.00
2024-05-09T18:04:51.124Z,6.10
2024-05-09T18:08:16.539Z,6.28
2024-05-09T18:11:41.637Z,5.40
2024-05-09T18:15:09.754Z,6.47
2024-05-09T18:18:35.066Z,5.43
2024-05-09T18:22:01.842Z,5.47
2024-05-09T18:25:27.205Z,4.82
2024-05-09T18:28:52.192Z,5.20
2024-05-09T18:32:17.263Z,5.38
2024-05-09T18:35:42.633Z,4.80
2024-05-09T18:39:07.969Z,5.15
2024-05-09T18:42:33.268Z,5.00
2024-05-09T18:45:58.567Z,5.40
2024-05-09T18:49:24.087Z,3.63
2024-05-09T18:52:49.120Z,5.43
2024-05-09T18:56:14.415Z,5.80
2024-05-09T18:59:39.358Z,5.33
2024-05-09T19:03:06.239Z,4.97
2024-05-09T19:06:32.654Z,5.00
2024-05-09T19:09:58.004Z,4.55
2024-05-09T19:13:23.063Z,6.03
2024-05-09T19:16:48.520Z,5.20
2024-05-09T19:20:24.739Z,4.95
2024-05-09T19:23:55.644Z,5.50
2024-05-09T19:27:21.533Z,5.75
2024-05-09T19:30:46.832Z,5.57
2024-05-09T19:34:11.960Z,4.35
2024-05-09T19:37:37.007Z,5.72
2024-05-09T19:41:02.205Z,5.63
2024-05-09T19:44:29.325Z,5.85
2024-05-09T19:47:54.680Z,5.97
2024-05-09T19:51:19.766Z,5.00
2024-05-09T19:54:51.904Z,6.20
2024-05-09T19:58:31.708Z,6.95
2024-05-09T20:02:05.243Z,7.10
2024-05-09T20:05:49.591Z,7.07
2024-05-09T20:09:14.667Z,7.80
2024-05-09T20:12:39.908Z,7.93
2024-05-09T20:16:08.419Z,8.23
2024-05-09T20:19:38.362Z,7.03
2024-05-09T20:23:03.460Z,7.32
2024-05-09T20:26:30.849Z,7.68
2024-05-09T20:29:56.156Z,7.13
2024-05-09T20:33:25.778Z,7.60
2024-05-09T20:36:56.289Z,7.35
2024-05-09T20:40:32.727Z,8.10
2024-05-09T20:44:07.659Z,8.32
2024-05-09T20:47:32.818Z,8.88
2024-05-09T20:50:57.826Z,8.00
2024-05-09T20:54:23.061Z,9.23
2024-05-09T20:57:48.044Z,9.18
2024-05-09T21:01:13.249Z,9.45
2024-05-09T21:04:41.576Z,9.70
2024-05-09T21:08:06.810Z,10.20
2024-05-09T21:11:32.468Z,9.70
2024-05-09T21:14:57.506Z,7.32
2024-05-09T21:18:22.589Z,10.57
2024-05-09T21:21:48.466Z,10.25
2024-05-09T21:25:14.680Z,9.68
2024-05-09T21:28:39.902Z,11.47
2024-05-09T21:32:06.590Z,10.88
2024-05-09T21:35:31.674Z,10.65
2024-05-09T21:38:56.686Z,11.40
2024-05-09T21:42:21.737Z,10.40
2024-05-09T21:45:46.774Z,10.80
2024-05-09T21:49:12.101Z,10.75
2024-05-09T21:52:40.515Z,11.23
2024-05-09T21:56:05.940Z,11.80
2024-05-09T21:59:30.895Z,11.37
2024-05-09T22:02:55.918Z,11.23
2024-05-09T22:06:20.900Z,10.43
2024-05-09T22:09:46.167Z,11.07
2024-05-09T22:13:11.362Z,11.87
2024-05-09T22:16:40.504Z,12.00
2024-05-09T22:20:17.877Z,10.93
2024-05-09T22:23:46.879Z,11.67
2024-05-09T22:27:12.139Z,10.80
2024-05-09T22:30:39.647Z,11.37
2024-05-09T22:34:06.259Z,12.67
2024-05-09T22:37:31.317Z,10.95
2024-05-09T22:40:56.290Z,10.70
2024-05-09T22:44:21.511Z,12.50
2024-05-09T22:47:46.551Z,12.60
2024-05-09T22:51:12.270Z,12.87
2024-05-09T22:54:37.268Z,13.35
2024-05-09T22:58:02.884Z,12.17
2024-05-09T23:01:27.921Z,13.35
2024-05-09T23:04:53.185Z,12.10
2024-05-09T23:08:18.187Z,13.47
2024-05-09T23:11:43.818Z,13.30
2024-05-09T23:15:09.021Z,13.38
2024-05-09T23:18:34.259Z,11.87
2024-05-09T23:21:59.638Z,12.80
2024-05-09T23:25:24.679Z,12.60
2024-05-09T23:28:49.881Z,12.37
2024-05-09T23:32:14.860Z,12.47
2024-05-09T23:35:41.044Z,12.03
2024-05-09T23:39:06.210Z,12.27
2024-05-09T23:42:31.360Z,12.43
2024-05-09T23:45:56.396Z,12.57
2024-05-09T23:49:21.714Z,13.27
2024-05-09T23:52:46.879Z,12.40
2024-05-09T23:56:13.811Z,12.80
2024-05-09T23:59:39.066Z,11.67
